createdAt,value
2022-08-09T00:00:12.052Z,20.10
2022-08-09T00:02:43.070Z,19.80
2022-08-09T00:06:16.020Z,19.80
2022-08-09T00:08:10.003Z,20.50
2022-08-09T00:10:38.374Z,20.10
2022-08-09T00:13:17.458Z,19.40
2022-08-09T00:15:59.668Z,19.20
2022-08-09T00:18:31.437Z,19.40
2022-08-09T00:21:04.555Z,19.00
2022-08-09T00:23:57.540Z,19.00
2022-08-09T00:26:18.640Z,19.00
2022-08-09T00:28:52.167Z,19.10
2022-08-09T00:31:57.622Z,19.50
2022-08-09T00:34:08.814Z,19.20
2022-08-09T00:36:38.001Z,19.20
2022-08-09T00:39:06.974Z,19.40
2022-08-09T00:44:10.640Z,19.10
2022-08-09T00:44:31.805Z,19.20
2022-08-09T00:47:05.578Z,19.40
2022-08-09T00:49:36.680Z,19.00
2022-08-09T00:52:05.980Z,18.90
2022-08-09T00:54:36.461Z,18.90
2022-08-09T00:57:10.671Z,18.80
2022-08-09T00:59:46.652Z,18.70
2022-08-09T01:02:30.138Z,18.60
2022-08-09T01:05:03.193Z,18.50
2022-08-09T01:08:10.613Z,18.30
2022-08-09T01:11:04.065Z,18.20
2022-08-09T01:13:58.567Z,18.20
2022-08-09T01:16:47.485Z,18.20
2022-08-09T01:19:57.051Z,18.20
2022-08-09T01:22:54.791Z,18.30
2022-08-09T01:25:49.039Z,18.40
2022-08-09T01:28:21.420Z,18.40
2022-08-09T01:30:53.139Z,18.40
2022-08-09T01:33:25.877Z,18.30
2022-08-09T01:36:08.964Z,18.20
2022-08-09T01:38:39.963Z,18.30
2022-08-09T01:41:13.223Z,18.10
2022-08-09T01:43:51.861Z,18.10
2022-08-09T01:46:27.377Z,18.00
2022-08-09T01:49:09.758Z,18.00
2022-08-09T01:51:53.448Z,18.10
2022-08-09T01:54:30.212Z,18.00
2022-08-09T01:57:05.083Z,18.10
2022-08-09T01:59:40.824Z,18.60
2022-08-09T02:02:21.772Z,18.40
2022-08-09T02:04:51.100Z,18.10
2022-08-09T02:08:38.628Z,18.20
2022-08-09T02:10:15.333Z,18.30
2022-08-09T02:12:44.028Z,18.10
2022-08-09T02:15:16.700Z,18.70
2022-08-09T02:18:00.292Z,18.00
2022-08-09T02:20:37.157Z,17.90
2022-08-09T02:23:08.080Z,17.90
2022-08-09T02:25:42.269Z,17.80
2022-08-09T02:28:20.230Z,17.70
2022-08-09T02:30:52.139Z,18.40
2022-08-09T02:33:37.998Z,17.60
2022-08-09T02:36:16.947Z,17.30
2022-08-09T02:38:56.194Z,17.40
2022-08-09T02:41:41.604Z,16.70
2022-08-09T02:44:29.458Z,16.70
2022-08-09T02:47:00.590Z,16.90
2022-08-09T02:49:38.444Z,17.70
2022-08-09T02:52:11.611Z,17.30
2022-08-09T02:54:53.853Z,17.20
2022-08-09T02:57:23.453Z,17.40
2022-08-09T03:00:20.965Z,17.60
2022-08-09T03:02:46.326Z,17.80
2022-08-09T03:05:26.756Z,16.90
2022-08-09T03:07:55.810Z,16.80
2022-08-09T03:10:24.498Z,16.70
2022-08-09T03:12:53.204Z,16.80
2022-08-09T03:15:22.995Z,17.10
2022-08-09T03:17:57.818Z,16.70
2022-08-09T03:20:29.424Z,16.80
2022-08-09T03:23:00.353Z,17.30
2022-08-09T03:25:58.582Z,16.90
2022-08-09T03:28:30.992Z,16.90
2022-08-09T03:30:59.270Z,17.00
2022-08-09T03:33:53.556Z,17.00
2022-08-09T03:36:18.829Z,17.70
2022-08-09T03:38:47.913Z,17.00
2022-08-09T03:41:18.434Z,17.70
2022-08-09T03:44:07.547Z,17.00
2022-08-09T03:46:34.286Z,16.90
2022-08-09T03:49:04.015Z,16.90
2022-08-09T03:51:43.940Z,16.50
2022-08-09T03:54:29.405Z,16.50
2022-08-09T03:56:59.669Z,16.60
2022-08-09T03:59:53.458Z,16.60
2022-08-09T04:02:14.823Z,16.70
2022-08-09T04:04:47.911Z,17.40
2022-08-09T04:07:18.055Z,17.20
2022-08-09T04:09:49.739Z,16.80
2022-08-09T04:12:37.301Z,16.80
2022-08-09T04:15:17.240Z,16.80
2022-08-09T04:17:51.512Z,16.80
2022-08-09T04:20:18.940Z,16.70
2022-08-09T04:22:46.648Z,16.90
2022-08-09T04:25:13.707Z,16.80
2022-08-09T04:27:41.748Z,16.70
2022-08-09T04:30:14.075Z,16.70
2022-08-09T04:32:46.645Z,16.60
2022-08-09T04:35:15.374Z,16.50
2022-08-09T04:37:45.770Z,16.40
2022-08-09T04:40:19.562Z,17.40
2022-08-09T04:43:01.507Z,16.80
2022-08-09T04:45:30.653Z,16.30
2022-08-09T04:48:03.170Z,16.30
2022-08-09T04:50:37.755Z,16.40
2022-08-09T04:53:13.309Z,16.30
2022-08-09T04:55:57.922Z,16.40
2022-08-09T04:58:27.575Z,16.50
2022-08-09T05:00:55.569Z,16.40
2022-08-09T05:03:41.131Z,16.60
2022-08-09T05:06:12.115Z,16.70
2022-08-09T05:08:52.685Z,16.80
2022-08-09T05:11:32.156Z,16.90
2022-08-09T05:14:06.045Z,17.00
2022-08-09T05:16:43.636Z,17.00
2022-08-09T05:19:24.375Z,17.20
2022-08-09T05:21:55.304Z,18.10
2022-08-09T05:24:24.133Z,17.60
2022-08-09T05:26:52.184Z,17.40
2022-08-09T05:29:24.100Z,17.50
2022-08-09T05:31:56.879Z,17.60
2022-08-09T05:34:31.156Z,17.60
2022-08-09T05:37:05.928Z,17.70
2022-08-09T05:39:43.910Z,17.80
2022-08-09T05:42:17.361Z,18.30
2022-08-09T05:44:50.420Z,18.10
2022-08-09T05:47:19.162Z,18.90
2022-08-09T05:50:25.926Z,18.40
2022-08-09T05:52:33.218Z,18.60
2022-08-09T05:55:03.101Z,19.20
2022-08-09T05:57:55.396Z,19.50
2022-08-09T06:00:33.964Z,19.20
2022-08-09T06:03:02.404Z,20.00
2022-08-09T06:05:57.450Z,19.70
2022-08-09T06:08:19.374Z,19.80
2022-08-09T06:10:52.275Z,19.90
2022-08-09T06:13:20.816Z,20.10
2022-08-09T06:15:51.706Z,20.80
2022-08-09T06:18:25.187Z,20.70
2022-08-09T06:20:57.885Z,20.80
2022-08-09T06:23:58.661Z,21.60
2022-08-09T06:26:20.777Z,21.60
2022-08-09T06:28:49.883Z,21.00
2022-08-09T06:31:31.052Z,21.00
2022-08-09T06:33:58.603Z,21.20
2022-08-09T06:36:27.362Z,21.20
2022-08-09T06:38:57.542Z,21.20
2022-08-09T06:42:07.479Z,21.90
2022-08-09T06:44:18.078Z,21.40
2022-08-09T06:46:45.687Z,21.70
2022-08-09T06:49:16.133Z,21.90
2022-08-09T06:51:55.833Z,22.20
2022-08-09T06:54:22.982Z,22.50
2022-08-09T06:56:53.859Z,22.80
2022-08-09T07:00:51.562Z,22.90
2022-08-09T07:02:09.505Z,22.60
2022-08-09T07:04:36.445Z,22.80
2022-08-09T07:07:04.910Z,23.00
2022-08-09T07:09:54.990Z,23.00
2022-08-09T07:12:20.298Z,22.80
2022-08-09T07:14:51.205Z,23.40
2022-08-09T07:17:20.006Z,23.50
2022-08-09T07:19:48.163Z,23.50
2022-08-09T07:22:18.358Z,23.50
2022-08-09T07:24:49.345Z,23.50
2022-08-09T07:27:33.582Z,23.80
2022-08-09T07:30:02.507Z,23.70
2022-08-09T07:32:32.089Z,23.60
2022-08-09T07:35:11.417Z,24.20
2022-08-09T07:37:45.376Z,23.50
2022-08-09T07:40:16.977Z,23.60
2022-08-09T07:42:57.080Z,23.70
2022-08-09T07:45:39.208Z,23.90
2022-08-09T07:48:25.621Z,24.00
2022-08-09T07:51:09.135Z,24.10
2022-08-09T07:54:04.916Z,24.30
2022-08-09T07:56:33.914Z,24.40
2022-08-09T07:59:01.485Z,24.60
2022-08-09T08:01:33.010Z,24.80
2022-08-09T08:04:02.848Z,24.80
2022-08-09T08:06:32.030Z,24.60
2022-08-09T08:09:05.026Z,24.80
2022-08-09T08:12:24.020Z,24.70
2022-08-09T08:14:24.126Z,24.90
2022-08-09T08:17:00.656Z,25.10
2022-08-09T08:19:34.851Z,25.30
2022-08-09T08:22:02.190Z,25.50
2022-08-09T08:24:35.210Z,25.60
2022-08-09T08:27:16.531Z,25.60
2022-08-09T08:29:48.449Z,25.70
2022-08-09T08:32:24.347Z,25.80
2022-08-09T08:34:58.503Z,26.00
2022-08-09T08:37:41.898Z,26.10
2022-08-09T08:40:14.242Z,26.10
2022-08-09T08:42:43.630Z,26.10
2022-08-09T08:45:15.738Z,26.30
2022-08-09T08:47:45.893Z,26.50
2022-08-09T08:50:18.077Z,26.60
2022-08-09T08:53:00.005Z,26.60
2022-08-09T08:55:28.352Z,26.80
2022-08-09T08:57:59.776Z,27.10
2022-08-09T09:00:34.327Z,26.70
2022-08-09T09:03:11.215Z,27.20
2022-08-09T09:05:59.987Z,27.10
2022-08-09T09:08:32.456Z,27.00
2022-08-09T09:11:08.363Z,27.50
2022-08-09T09:13:50.188Z,27.80
2022-08-09T09:16:31.077Z,27.80
2022-08-09T09:22:11.333Z,27.70
2022-08-09T09:24:43.714Z,28.00
2022-08-09T09:28:04.363Z,27.90
2022-08-09T09:30:12.394Z,27.90
2022-08-09T09:32:43.555Z,28.00
2022-08-09T09:35:15.843Z,28.20
2022-08-09T09:37:46.111Z,28.60
2022-08-09T09:40:13.141Z,28.10
2022-08-09T09:42:42.778Z,28.50
2022-08-09T09:45:14.361Z,28.40
2022-08-09T09:47:56.542Z,29.00
2022-08-09T09:50:49.727Z,28.90
2022-08-09T09:53:25.200Z,28.80
2022-08-09T09:56:19.701Z,28.70
2022-08-09T09:58:58.005Z,29.20
2022-08-09T10:01:30.972Z,29.20
2022-08-09T10:04:16.260Z,29.30
2022-08-09T10:06:57.588Z,29.70
2022-08-09T10:09:24.453Z,29.60
2022-08-09T10:12:14.537Z,29.70
2022-08-09T10:14:48.452Z,29.90
2022-08-09T10:17:39.741Z,30.00
2022-08-09T10:20:11.004Z,30.40
2022-08-09T10:22:42.479Z,30.30
2022-08-09T10:25:12.279Z,29.90
2022-08-09T10:27:56.919Z,30.10
2022-08-09T10:34:07.711Z,30.90
2022-08-09T10:36:00.941Z,31.30
2022-08-09T10:38:54.601Z,31.60
2022-08-09T10:41:17.787Z,31.60
2022-08-09T10:43:58.621Z,31.20
2022-08-09T10:47:00.753Z,31.10
2022-08-09T10:50:06.388Z,31.10
2022-08-09T10:53:14.342Z,31.20
2022-08-09T10:55:57.947Z,31.70
2022-08-09T10:58:34.776Z,31.60
2022-08-09T11:03:26.995Z,31.40
2022-08-09T11:04:28.374Z,30.50
2022-08-09T11:07:00.059Z,30.70
2022-08-09T11:09:41.251Z,30.40
2022-08-09T11:12:26.418Z,31.00
2022-08-09T11:15:19.357Z,31.20
2022-08-09T11:18:02.952Z,31.10
2022-08-09T11:20:52.803Z,31.60
2022-08-09T11:23:24.050Z,31.50
2022-08-09T11:25:57.243Z,31.30
2022-08-09T11:28:34.541Z,31.40
2022-08-09T11:31:57.379Z,31.80
2022-08-09T11:34:35.082Z,32.30
2022-08-09T11:37:03.625Z,32.80
2022-08-09T11:40:01.651Z,32.10
2022-08-09T11:42:50.180Z,32.30
2022-08-09T11:45:20.719Z,32.70
2022-08-09T11:47:51.962Z,32.40
2022-08-09T11:50:53.577Z,32.70
2022-08-09T11:53:28.136Z,32.90
2022-08-09T11:56:02.982Z,33.40
2022-08-09T11:58:33.026Z,33.30
2022-08-09T12:01:15.546Z,33.50
2022-08-09T12:04:04.172Z,33.60
2022-08-09T12:06:35.256Z,34.10
2022-08-09T12:09:17.613Z,33.60
2022-08-09T12:12:03.229Z,33.50
2022-08-09T12:14:36.770Z,33.90
2022-08-09T12:17:34.363Z,33.80
2022-08-09T12:20:00.790Z,33.40
2022-08-09T12:22:29.215Z,33.80
2022-08-09T12:25:16.784Z,33.50
2022-08-09T12:29:09.975Z,33.50
2022-08-09T12:30:36.132Z,33.00
2022-08-09T12:33:07.344Z,33.00
2022-08-09T12:35:41.052Z,33.00
2022-08-09T12:38:37.366Z,33.30
2022-08-09T12:41:07.315Z,34.50
2022-08-09T12:44:06.421Z,33.50
2022-08-09T12:46:26.103Z,33.40
2022-08-09T12:48:57.379Z,33.20
2022-08-09T12:51:30.478Z,32.50
2022-08-09T12:54:11.880Z,32.90
2022-08-09T12:56:53.794Z,33.00
2022-08-09T12:59:22.974Z,33.20
2022-08-09T13:01:59.161Z,33.40
2022-08-09T13:04:36.008Z,32.50
2022-08-09T13:07:49.954Z,32.90
2022-08-09T13:10:06.703Z,33.50
2022-08-09T13:12:40.122Z,33.10
2022-08-09T13:15:20.749Z,33.00
2022-08-09T13:18:04.694Z,32.90
2022-08-09T13:21:20.480Z,32.90
2022-08-09T13:24:15.716Z,32.80
2022-08-09T13:26:49.708Z,33.30
2022-08-09T13:29:20.696Z,33.30
2022-08-09T13:32:15.991Z,33.10
2022-08-09T13:34:48.617Z,33.60
2022-08-09T13:37:50.783Z,33.80
2022-08-09T13:41:54.896Z,33.60
2022-08-09T13:42:55.435Z,33.20
2022-08-09T13:45:22.311Z,33.30
2022-08-09T13:47:59.458Z,34.30
2022-08-09T13:50:31.044Z,33.30
2022-08-09T13:52:58.357Z,34.50
2022-08-09T13:55:28.861Z,34.10
2022-08-09T13:57:59.393Z,33.70
2022-08-09T14:00:29.302Z,33.80
2022-08-09T14:03:03.306Z,33.90
2022-08-09T14:05:56.878Z,33.80
2022-08-09T14:08:29.238Z,33.80
2022-08-09T14:10:57.050Z,34.30
2022-08-09T14:14:15.612Z,34.80
2022-08-09T14:16:19.507Z,35.40
2022-08-09T14:18:55.945Z,35.60
2022-08-09T14:21:25.710Z,35.20
2022-08-09T14:23:57.261Z,34.90
2022-08-09T14:26:32.639Z,34.70
2022-08-09T14:29:07.746Z,34.80
2022-08-09T14:31:53.855Z,34.90
2022-08-09T14:34:30.911Z,34.60
2022-08-09T14:37:01.947Z,34.50
2022-08-09T14:39:45.690Z,33.90
2022-08-09T14:42:29.072Z,34.20
2022-08-09T14:45:14.904Z,34.20
2022-08-09T14:47:58.798Z,34.30
2022-08-09T14:50:29.459Z,33.90
2022-08-09T14:52:57.834Z,33.70
2022-08-09T14:55:24.930Z,34.20
2022-08-09T14:57:51.772Z,34.70
2022-08-09T15:00:22.055Z,35.10
2022-08-09T15:02:51.631Z,34.60
2022-08-09T15:05:19.784Z,34.70
2022-08-09T15:07:54.748Z,34.80
2022-08-09T15:10:28.159Z,34.50
2022-08-09T15:12:56.639Z,34.60
2022-08-09T15:15:24.817Z,34.40
2022-08-09T15:17:55.972Z,34.10
2022-08-09T15:21:57.379Z,34.00
2022-08-09T15:24:00.523Z,34.20
2022-08-09T15:25:58.490Z,34.80
2022-08-09T15:28:28.486Z,34.90
2022-08-09T15:31:08.572Z,34.50
2022-08-09T15:34:15.493Z,34.10
2022-08-09T15:36:29.015Z,34.10
2022-08-09T15:38:57.419Z,34.40
2022-08-09T15:41:31.377Z,34.20
2022-08-09T15:44:03.014Z,34.30
2022-08-09T15:46:34.481Z,34.40
2022-08-09T15:49:20.938Z,34.20
2022-08-09T15:52:03.556Z,33.70
2022-08-09T15:54:44.854Z,34.10
2022-08-09T15:57:34.342Z,34.00
2022-08-09T16:00:14.598Z,34.10
2022-08-09T16:02:48.093Z,33.80
2022-08-09T16:05:22.032Z,33.50
2022-08-09T16:07:50.893Z,32.90
2022-08-09T16:10:55.158Z,32.70
2022-08-09T16:13:18.989Z,32.80
2022-08-09T16:16:10.162Z,33.00
2022-08-09T16:18:44.938Z,32.80
2022-08-09T16:21:17.322Z,32.90
2022-08-09T16:23:55.995Z,32.80
2022-08-09T16:26:33.609Z,32.80
2022-08-09T16:29:01.940Z,32.60
2022-08-09T16:32:19.004Z,32.50
2022-08-09T16:34:25.332Z,32.10
2022-08-09T16:36:52.971Z,32.00
2022-08-09T16:39:20.815Z,31.70
2022-08-09T16:42:02.690Z,31.60
2022-08-09T16:44:32.096Z,31.60
2022-08-09T16:47:01.852Z,31.60
2022-08-09T16:50:31.693Z,31.30
2022-08-09T16:52:33.244Z,31.20
2022-08-09T16:55:00.187Z,31.40
2022-08-09T16:57:27.098Z,31.50
2022-08-09T17:00:14.902Z,31.10
2022-08-09T17:02:42.788Z,31.00
2022-08-09T17:05:14.393Z,30.60
2022-08-09T17:08:46.509Z,30.70
2022-08-09T17:10:33.860Z,30.70
2022-08-09T17:13:01.561Z,30.50
2022-08-09T17:15:58.705Z,30.40
2022-08-09T17:18:15.873Z,30.50
2022-08-09T17:20:54.129Z,30.50
2022-08-09T17:23:21.018Z,30.70
2022-08-09T17:25:53.053Z,30.50
2022-08-09T17:28:20.195Z,30.70
2022-08-09T17:30:47.558Z,30.80
2022-08-09T17:33:22.663Z,30.60
2022-08-09T17:35:50.581Z,30.30
2022-08-09T17:38:32.950Z,30.40
2022-08-09T17:41:04.246Z,30.40
2022-08-09T17:43:35.102Z,30.40
2022-08-09T17:46:06.867Z,30.20
2022-08-09T17:48:51.532Z,29.80
2022-08-09T17:51:20.060Z,29.50
2022-08-09T17:53:54.781Z,29.50
2022-08-09T17:56:29.286Z,29.30
2022-08-09T17:59:11.866Z,29.50
2022-08-09T18:02:06.074Z,29.80
2022-08-09T18:04:30.585Z,29.40
2022-08-09T18:06:57.659Z,29.30
2022-08-09T18:09:40.640Z,29.20
2022-08-09T18:12:17.238Z,29.00
2022-08-09T18:14:49.666Z,28.80
2022-08-09T18:17:18.833Z,28.70
2022-08-09T18:20:54.198Z,28.50
2022-08-09T18:22:44.114Z,28.30
2022-08-09T18:25:17.977Z,27.90
2022-08-09T18:28:03.295Z,27.60
2022-08-09T18:30:41.448Z,27.40
2022-08-09T18:33:16.323Z,27.10
2022-08-09T18:35:59.982Z,26.90
2022-08-09T18:38:27.774Z,26.80
2022-08-09T18:40:55.663Z,26.70
2022-08-09T18:43:23.520Z,26.40
2022-08-09T18:46:47.570Z,26.20
2022-08-09T18:48:37.411Z,26.00
2022-08-09T18:51:04.661Z,26.00
2022-08-09T18:53:56.601Z,25.80
2022-08-09T18:56:27.798Z,25.80
2022-08-09T18:58:56.411Z,25.80
2022-08-09T19:01:24.573Z,25.80
2022-08-09T19:04:00.862Z,25.70
2022-08-09T19:06:34.831Z,25.50
2022-08-09T19:09:07.245Z,25.40
2022-08-09T19:11:38.373Z,25.30
2022-08-09T19:14:06.901Z,25.20
2022-08-09T19:16:35.985Z,25.10
2022-08-09T19:19:19.262Z,25.30
2022-08-09T19:21:58.937Z,25.10
2022-08-09T19:24:38.459Z,25.00
2022-08-09T19:27:18.845Z,25.00
2022-08-09T19:30:23.755Z,24.90
2022-08-09T19:32:33.163Z,24.80
2022-08-09T19:35:00.635Z,24.80
2022-08-09T19:37:29.198Z,24.90
2022-08-09T19:40:08.913Z,24.60
2022-08-09T19:42:36.002Z,24.50
2022-08-09T19:45:06.614Z,24.60
2022-08-09T19:47:38.358Z,24.40
2022-08-09T19:50:48.224Z,24.50
2022-08-09T19:52:52.785Z,24.40
2022-08-09T19:55:30.497Z,24.30
2022-08-09T19:58:16.324Z,24.60
2022-08-09T20:00:45.667Z,24.20
2022-08-09T20:04:18.713Z,24.20
2022-08-09T20:06:03.215Z,24.20
2022-08-09T20:08:34.899Z,24.10
2022-08-09T20:11:04.364Z,24.10
2022-08-09T20:13:37.218Z,24.10
2022-08-09T20:16:39.406Z,24.00
2022-08-09T20:19:42.713Z,23.90
2022-08-09T20:21:56.487Z,23.90
2022-08-09T20:24:31.732Z,23.80
2022-08-09T20:27:05.703Z,23.80
2022-08-09T20:29:37.789Z,23.70
2022-08-09T20:32:28.996Z,23.70
2022-08-09T20:34:59.210Z,23.60
2022-08-09T20:37:37.774Z,23.50
2022-08-09T20:40:19.123Z,23.50
2022-08-09T20:42:59.393Z,24.00
2022-08-09T20:45:59.419Z,23.50
2022-08-09T20:48:15.746Z,23.40
2022-08-09T20:50:50.327Z,23.50
2022-08-09T20:53:36.613Z,23.40
2022-08-09T20:56:20.844Z,23.40
2022-08-09T20:58:50.338Z,23.40
2022-08-09T21:01:32.752Z,23.60
2022-08-09T21:04:14.176Z,23.30
2022-08-09T21:06:50.936Z,23.30
2022-08-09T21:09:32.874Z,23.30
2022-08-09T21:14:36.977Z,23.20
2022-08-09T21:18:11.317Z,23.40
2022-08-09T21:20:17.550Z,23.10
2022-08-09T21:22:42.572Z,23.10
2022-08-09T21:25:57.190Z,23.40
2022-08-09T21:28:35.808Z,23.00
2022-08-09T21:31:17.556Z,23.10
2022-08-09T21:33:53.052Z,23.10
2022-08-09T21:36:27.756Z,23.00
2022-08-09T21:38:57.704Z,23.00
2022-08-09T21:42:03.931Z,23.00
2022-08-09T21:44:33.341Z,22.90
2022-08-09T21:47:07.741Z,23.10
2022-08-09T21:49:42.690Z,23.10
2022-08-09T21:52:17.578Z,22.90
2022-08-09T21:54:46.531Z,22.90
2022-08-09T21:57:25.241Z,22.80
2022-08-09T22:00:10.194Z,22.80
2022-08-09T22:02:37.964Z,22.80
2022-08-09T22:05:16.758Z,22.80
2022-08-09T22:07:51.759Z,22.70
2022-08-09T22:10:23.313Z,22.60
2022-08-09T22:12:52.208Z,22.60
2022-08-09T22:15:20.556Z,22.60
2022-08-09T22:17:47.684Z,22.50
2022-08-09T22:20:17.101Z,22.60
2022-08-09T22:22:49.284Z,22.40
2022-08-09T22:26:06.492Z,22.40
2022-08-09T22:28:07.239Z,22.30
2022-08-09T22:30:34.361Z,22.30
2022-08-09T22:33:01.648Z,23.10
2022-08-09T22:36:02.365Z,22.20
2022-08-09T22:38:16.464Z,22.40
2022-08-09T22:40:49.291Z,22.30
2022-08-09T22:44:01.413Z,22.50
2022-08-09T22:48:14.137Z,22.20
2022-08-09T22:49:09.540Z,23.10
2022-08-09T22:51:43.510Z,22.10
2022-08-09T22:54:21.316Z,22.20
2022-08-09T22:56:50.770Z,22.10
2022-08-09T22:59:55.259Z,22.00
2022-08-09T23:02:08.460Z,21.90
2022-08-09T23:04:38.363Z,21.80
2022-08-09T23:07:41.454Z,21.70
2022-08-09T23:10:11.457Z,21.70
2022-08-09T23:12:38.392Z,22.10
2022-08-09T23:15:05.779Z,21.40
2022-08-09T23:17:32.878Z,21.40
2022-08-09T23:20:00.566Z,21.30
2022-08-09T23:22:34.463Z,21.30
2022-08-09T23:25:04.775Z,21.30
2022-08-09T23:27:31.864Z,21.20
2022-08-09T23:29:58.875Z,21.20
2022-08-09T23:32:25.710Z,22.00
2022-08-09T23:34:52.533Z,21.10
2022-08-09T23:37:22.997Z,21.10
2022-08-09T23:39:52.445Z,21.10
2022-08-09T23:42:19.220Z,21.20
2022-08-09T23:44:46.134Z,21.00
2022-08-09T23:47:14.051Z,21.00
2022-08-09T23:49:41.102Z,20.70
2022-08-09T23:52:07.909Z,20.70
2022-08-09T23:54:35.821Z,20.60
2022-08-09T23:57:02.790Z,20.60
2022-08-09T23:59:51.148Z,20.60
